Time;durP1;ratioP1;P1;durP2;ratioP2;P2;SDS_P1;SDS_P2;PMS_P1;PMS_P2;Temp;Humidity;BMP_temperature;BMP_pressure;BME280_temperature;BME280_humidity;BME280_pressure;Samples;Min_cycle;Max_cycle;Signal;HPM_P1;HPM_P2
2023/11/02 00:01:18;;;;;;;2.87;2.00;;;9.00;84.60;;;8.11;89.05;96516.59;4973951;28;20467;-82
2023/11/02 00:03:45;;;;;;;3.17;1.60;;;9.00;85.00;;;7.98;89.89;96523.03;4968538;28;20515;-76
2023/11/02 00:06:25;;;;;;;4.37;1.50;;;8.90;85.20;;;7.85;91.17;96499.88;4969076;28;20655;-78
2023/11/02 00:09:34;;;;;;;2.67;2.47;;;8.80;85.80;;;7.86;92.27;96493.47;4974796;28;20468;-78
2023/11/02 00:12:04;;;;;;;5.57;2.10;;;8.80;86.70;;;7.80;92.25;96506.78;4978104;28;20481;-77
2023/11/02 00:14:37;;;;;;;3.60;2.00;;;8.70;86.90;;;7.68;92.93;96491.72;4981814;28;20450;-84
2023/11/02 00:17:55;;;;;;;2.67;2.00;;;8.60;87.10;;;7.65;92.99;96493.00;4962416;28;20453;-76
2023/11/02 00:20:36;;;;;;;2.87;1.67;;;8.60;87.70;;;7.56;94.60;96489.84;4973847;28;20454;-84
2023/11/02 00:23:05;;;;;;;4.27;2.03;;;8.50;88.40;;;7.40;95.70;96498.63;4979007;28;20472;-78
2023/11/02 00:25:53;;;;;;;3.30;2.37;;;8.40;89.10;;;7.47;95.47;96491.25;4979914;28;20461;-78
2023/11/02 00:28:22;;;;;;;2.67;2.13;;;8.40;90.00;;;7.00;95.56;96423.00;4973920;28;20453;-80
2023/11/02 00:30:50;;;;;;;3.63;1.90;;;8.50;90.20;;;7.40;95.97;96485.19;4961805;28;20445;-81
2023/11/02 00:33:21;;;;;;;3.07;1.93;;;8.40;90.30;;;7.41;96.15;96476.88;4975997;28;20482;-78
2023/11/02 00:35:51;;;;;;;2.60;1.90;;;8.50;90.40;;;7.41;96.27;96470.69;4964639;28;21011;-78
2023/11/02 00:38:22;;;;;;;3.40;1.83;;;8.40;90.40;;;7.37;96.37;96470.31;4977022;28;20540;-79
2023/11/02 00:40:50;;;;;;;2.83;2.10;;;8.40;90.60;;;7.35;97.19;96475.13;4977656;28;20458;-81
2023/11/02 00:43:19;;;;;;;4.80;2.03;;;8.40;91.00;;;7.31;97.11;96455.94;4975906;28;20454;-77
2023/11/02 00:45:46;;;;;;;5.03;2.37;;;8.40;90.90;;;7.23;97.39;96448.25;4979272;28;20553;-80
2023/11/02 00:48:20;;;;;;;2.50;2.30;;;8.30;90.90;;;7.19;97.94;96444.38;4981970;28;20463;-71
2023/11/02 00:51:19;;;;;;;4.60;2.50;;;8.30;91.50;;;7.16;97.97;96442.16;4983459;28;20462;-80
2023/11/02 00:53:51;;;;;;;2.93;2.07;;;8.20;91.40;;;7.12;98.32;96435.63;4984411;28;20476;-79
2023/11/02 00:56:19;;;;;;;2.37;2.17;;;8.10;92.00;;;7.15;98.63;96429.78;4975729;28;20470;-79
2023/11/02 00:58:52;;;;;;;2.47;2.13;;;8.20;91.90;;;7.14;98.29;96434.34;4970518;28;20492;-79
2023/11/02 01:01:22;;;;;;;3.20;2.40;;;8.10;91.90;;;7.15;98.28;96435.97;4971673;28;20449;-79
2023/11/02 01:04:02;;;;;;;2.60;2.00;;;8.10;92.00;;;7.03;98.59;96427.88;4974678;28;20849;-73
2023/11/02 01:06:31;;;;;;;2.90;1.73;;;8.10;91.90;;;7.00;99.13;96428.38;4971160;28;20581;-80
2023/11/02 01:09:02;;;;;;;3.87;2.00;;;8.10;91.80;;;6.92;98.88;96421.47;4979394;28;20528;-76
2023/11/02 01:11:33;;;;;;;1.97;1.87;;;8.00;91.80;;;6.91;99.14;96409.09;4978328;28;22383;-82
2023/11/02 01:14:02;;;;;;;3.60;2.33;;;8.00;92.00;;;6.85;99.07;96404.66;4970366;28;20969;-76
2023/11/02 01:16:30;;;;;;;2.30;2.10;;;7.90;92.10;;;6.87;99.17;96390.97;4969723;28;20513;-81
2023/11/02 01:18:59;;;;;;;3.00;1.87;;;7.90;92.20;;;6.82;99.37;96382.81;4979003;28;20450;-80
2023/11/02 01:21:30;;;;;;;3.10;1.67;;;7.90;92.20;;;6.66;99.42;96369.03;4986881;28;20465;-78
2023/11/02 01:24:08;;;;;;;4.43;2.50;;;7.90;92.10;;;6.69;99.75;96357.81;4976236;28;20455;-80
2023/11/02 01:27:01;;;;;;;4.57;1.73;;;7.80;92.30;;;6.71;100.00;96355.72;4985648;28;20465;-78
2023/11/02 01:29:31;;;;;;;2.60;2.40;;;7.80;92.60;;;6.68;99.81;96337.41;4955147;28;20452;-78
2023/11/02 01:32:00;;;;;;;3.70;1.90;;;7.80;92.40;;;6.66;100.00;96344.88;4981674;28;20721;-75
2023/11/02 01:34:30;;;;;;;3.20;2.10;;;7.70;92.30;;;6.63;99.89;96327.34;4955737;28;20445;-80
2023/11/02 01:36:58;;;;;;;2.37;1.70;;;7.70;92.40;;;6.62;100.00;96341.03;4967164;28;20466;-80
2023/11/02 01:40:03;;;;;;;2.60;2.40;;;7.70;92.60;;;6.59;100.00;96336.91;4976941;28;20992;-76
2023/11/02 01:42:42;;;;;;;5.00;2.53;;;7.70;92.60;;;6.56;100.00;96333.88;4967260;28;20457;-77
2023/11/02 01:45:13;;;;;;;4.53;2.17;;;7.70;92.50;;;6.51;100.00;96319.28;4957843;28;20532;-75
2023/11/02 01:47:56;;;;;;;1.80;1.70;;;7.70;92.80;;;6.49;100.00;96310.66;4956398;28;20460;-80
2023/11/02 01:50:32;;;;;;;2.30;2.10;;;7.60;92.70;;;6.50;100.00;96306.94;4973837;28;20456;-79
2023/11/02 01:53:38;;;;;;;2.40;2.20;;;7.60;92.90;;;6.41;100.00;96302.94;4972301;28;20574;-80
2023/11/02 01:56:30;;;;;;;4.80;1.63;;;7.50;92.90;;;6.33;100.00;96298.72;4937176;28;20457;-72
2023/11/02 01:59:12;;;;;;;4.13;2.10;;;7.50;93.20;;;6.50;100.00;96301.56;4959098;28;20465;-79
2023/11/02 02:01:49;;;;;;;2.73;1.80;;;7.50;93.20;;;6.58;100.00;96297.72;4946958;28;20481;-80
2023/11/02 02:04:26;;;;;;;4.00;2.80;;;7.50;93.20;;;6.59;100.00;96301.19;4946005;28;20484;-79
2023/11/02 02:07:09;;;;;;;4.40;2.67;;;7.50;93.30;;;6.56;100.00;96283.72;4966073;28;20512;-76
2023/11/02 02:09:56;;;;;;;2.30;2.13;;;7.40;93.50;;;6.50;100.00;96273.91;4949085;28;20466;-80
2023/11/02 02:12:37;;;;;;;4.10;2.33;;;7.40;93.70;;;6.41;99.86;96246.59;4968074;28;20497;-81
2023/11/02 02:15:11;;;;;;;3.20;2.90;;;7.40;93.80;;;6.56;99.90;96262.25;4967176;28;20474;-79
2023/11/02 02:17:48;;;;;;;5.37;2.30;;;7.40;93.50;;;6.57;100.00;96257.69;4966931;28;20462;-79
2023/11/02 02:20:22;;;;;;;3.00;1.70;;;7.40;93.80;;;6.55;100.00;96260.63;4947991;28;20504;-80
2023/11/02 02:23:01;;;;;;;2.93;1.70;;;7.40;93.50;;;6.52;100.00;96243.13;4961738;28;20451;-81
2023/11/02 02:25:37;;;;;;;5.37;2.27;;;7.40;93.60;;;6.60;100.00;96238.47;4964132;28;20575;-80
2023/11/02 02:28:26;;;;;;;8.67;2.80;;;7.40;93.50;;;6.55;100.00;96238.31;4966091;28;20553;-80
2023/11/02 02:31:20;;;;;;;3.77;1.90;;;7.40;93.50;;;6.61;99.87;96240.09;4947305;28;20864;-74
2023/11/02 02:34:40;;;;;;;4.40;2.23;;;7.40;93.50;;;6.28;100.00;96228.03;4950212;28;20490;-79
2023/11/02 02:37:14;;;;;;;3.17;2.80;;;7.30;93.50;;;6.24;100.00;96233.06;4964602;28;20461;-78
2023/11/02 02:39:45;;;;;;;2.80;2.20;;;7.30;93.60;;;6.22;100.00;96241.34;4976295;28;20544;-78
2023/11/02 02:42:15;;;;;;;2.47;2.23;;;7.30;93.80;;;6.23;100.00;96237.59;4959075;28;20456;-78
2023/11/02 02:44:47;;;;;;;2.60;2.40;;;7.30;93.90;;;6.30;100.00;96245.53;4952064;28;20449;-77
2023/11/02 02:47:18;;;;;;;2.70;2.43;;;7.40;93.80;;;6.27;100.00;96231.78;4950065;28;20767;-78
2023/11/02 02:49:51;;;;;;;2.90;2.30;;;7.40;93.60;;;6.32;100.00;96237.28;4963857;28;20487;-79
2023/11/02 02:52:22;;;;;;;2.70;2.03;;;7.40;93.50;;;6.27;100.00;96226.41;4971668;28;20454;-77
2023/11/02 02:54:53;;;;;;;7.30;2.70;;;7.40;93.40;;;6.34;100.00;96232.50;4949677;28;20537;-77
2023/11/02 02:57:25;;;;;;;3.57;2.47;;;7.40;93.40;;;6.37;100.00;96226.66;4976051;28;20468;-77
2023/11/02 02:59:56;;;;;;;3.03;2.27;;;7.40;93.40;;;6.36;100.00;96225.03;4966846;28;20496;-75
2023/11/02 03:02:28;;;;;;;3.77;3.33;;;7.50;93.30;;;6.33;100.00;96225.50;4969964;28;20471;-77
2023/11/02 03:04:57;;;;;;;4.07;2.30;;;7.40;93.30;;;6.33;100.00;96212.88;4967252;28;20501;-76
2023/11/02 03:07:30;;;;;;;2.77;2.37;;;7.40;93.30;;;6.37;100.00;96214.09;4963144;28;20469;-78
2023/11/02 03:10:02;;;;;;;2.60;2.40;;;7.40;93.60;;;6.33;100.00;96206.72;4970091;28;20503;-78
2023/11/02 03:12:34;;;;;;;2.60;2.40;;;7.40;93.40;;;6.33;100.00;96204.03;4970839;28;20469;-78
2023/11/02 03:15:07;;;;;;;5.17;2.70;;;7.40;93.40;;;6.30;100.00;96199.16;4950956;28;20455;-81
2023/11/02 03:17:51;;;;;;;3.13;2.60;;;7.40;93.70;;;5.92;100.00;96108.16;4954614;28;20516;-79
2023/11/02 03:20:20;;;;;;;3.83;2.63;;;7.40;93.50;;;6.32;100.00;96154.13;4959795;28;20552;-80
2023/11/02 03:22:47;;;;;;;3.93;2.60;;;7.40;93.60;;;6.20;100.00;96141.53;4960423;28;20553;-75
2023/11/02 03:25:24;;;;;;;3.10;2.80;;;7.30;93.50;;;6.09;100.00;96128.94;4952007;28;20473;-77
2023/11/02 03:28:08;;;;;;;3.90;2.90;;;7.20;93.50;;;5.99;100.00;96117.94;4960702;28;20464;-77
2023/11/02 03:30:47;;;;;;;3.10;2.37;;;7.20;94.20;;;5.89;100.00;96116.66;4967449;28;20459;-80
2023/11/02 03:33:24;;;;;;;4.03;2.27;;;7.10;94.40;;;5.98;100.00;96129.72;4976978;28;20471;-80
2023/11/02 03:36:00;;;;;;;2.30;2.17;;;7.20;94.40;;;5.95;100.00;96131.81;4982591;28;20449;-77
2023/11/02 03:38:54;;;;;;;5.50;3.23;;;7.10;94.40;;;5.94;100.00;96111.41;4970195;28;20950;-82
2023/11/02 03:41:33;;;;;;;4.83;3.00;;;7.10;94.60;;;5.89;100.00;96113.97;4964948;28;20601;-79
2023/11/02 03:44:10;;;;;;;3.50;2.70;;;7.10;94.70;;;5.85;100.00;96096.75;4970794;28;20463;-81
2023/11/02 03:46:47;;;;;;;3.53;2.77;;;7.00;94.70;;;5.83;100.00;96093.44;4966158;28;20446;-78
2023/11/02 03:49:24;;;;;;;3.20;2.90;;;7.00;95.10;;;5.84;100.00;96087.06;4964599;28;20959;-80
2023/11/02 03:52:04;;;;;;;2.70;2.43;;;7.00;95.20;;;5.73;100.00;96075.28;4949894;28;20445;-80
2023/11/02 03:54:52;;;;;;;6.40;2.80;;;6.90;95.10;;;5.75;100.00;96069.69;4965937;28;20477;-78
2023/11/02 03:57:28;;;;;;;3.83;3.00;;;6.80;95.70;;;5.72;100.00;96062.13;4959488;28;20841;-80
2023/11/02 04:00:09;;;;;;;3.60;3.00;;;6.80;95.90;;;5.79;100.00;96052.91;4969660;28;20508;-77
2023/11/02 04:02:45;;;;;;;4.50;3.40;;;6.90;96.10;;;5.64;100.00;96041.84;4968757;28;20458;-77
2023/11/02 04:05:20;;;;;;;4.40;3.00;;;6.80;95.60;;;5.70;100.00;96032.06;4981806;28;20537;-77
2023/11/02 04:08:09;;;;;;;3.70;2.70;;;6.80;95.80;;;5.68;100.00;96017.00;4949303;28;20960;-73
2023/11/02 04:10:38;;;;;;;3.27;2.67;;;6.80;95.90;;;5.66;100.00;96013.75;4959223;28;20898;-77
2023/11/02 04:13:15;;;;;;;6.30;3.20;;;6.80;96.00;;;5.65;100.00;96009.44;4968021;28;20474;-76
2023/11/02 04:15:42;;;;;;;2.80;2.50;;;6.80;96.20;;;5.71;100.00;95998.88;4977422;28;20816;-76
2023/11/02 04:18:11;;;;;;;6.07;3.07;;;6.80;96.40;;;5.70;100.00;96002.59;4972789;28;20794;-78
2023/11/02 04:20:37;;;;;;;4.00;3.40;;;6.80;96.60;;;5.69;100.00;95996.41;4969347;28;20466;-78
2023/11/02 04:23:08;;;;;;;5.30;3.10;;;6.80;96.30;;;5.81;100.00;95991.88;4955168;28;20821;-80
2023/11/02 04:25:35;;;;;;;5.30;3.10;;;6.80;96.80;;;5.77;100.00;95984.53;4970168;28;20465;-80
2023/11/02 04:28:02;;;;;;;6.70;3.37;;;6.90;96.40;;;5.79;100.00;95979.72;4967647;28;20471;-77
2023/11/02 04:30:29;;;;;;;5.93;2.77;;;6.80;96.30;;;5.74;100.00;95969.72;4968440;28;20461;-81
2023/11/02 04:32:56;;;;;;;8.80;3.90;;;6.80;95.80;;;5.84;100.00;95966.47;4971609;28;20477;-80
2023/11/02 04:35:26;;;;;;;4.27;3.37;;;6.90;96.20;;;5.86;100.00;95955.50;4978088;28;20458;-82
2023/11/02 04:38:09;;;;;;;3.33;3.03;;;6.90;96.20;;;5.92;100.00;95941.16;4965997;28;20449;-80
2023/11/02 04:40:40;;;;;;;3.90;3.33;;;7.00;95.70;;;5.91;100.00;95932.28;4969618;28;20466;-78
2023/11/02 04:43:07;;;;;;;6.20;3.13;;;7.00;95.10;;;5.94;100.00;95925.66;4967047;28;20590;-76
2023/11/02 04:45:36;;;;;;;3.30;3.00;;;7.00;95.00;;;6.02;100.00;95917.25;4949303;28;20986;-80
2023/11/02 04:48:05;;;;;;;6.10;3.90;;;7.10;94.80;;;5.73;100.00;95852.06;4965994;28;20469;-78
2023/11/02 04:50:32;;;;;;;7.63;3.80;;;7.10;94.30;;;5.71;100.00;95816.66;4962388;28;20461;-74
2023/11/02 04:53:01;;;;;;;3.27;2.97;;;7.20;94.00;;;6.20;100.00;95889.47;4973946;28;20471;-77
2023/11/02 04:55:29;;;;;;;4.00;3.47;;;7.30;93.50;;;6.13;100.00;95867.31;4955454;28;20446;-80
2023/11/02 04:57:56;;;;;;;3.53;3.23;;;7.30;93.30;;;6.31;100.00;95874.34;4973219;28;20922;-79
2023/11/02 05:00:24;;;;;;;3.70;3.40;;;7.40;93.20;;;6.39;100.00;95883.88;4973527;28;20458;-78
2023/11/02 05:02:51;;;;;;;4.60;3.07;;;7.50;92.70;;;6.51;99.86;95886.50;4973457;28;20465;-79
2023/11/02 05:05:19;;;;;;;3.93;3.60;;;7.60;92.30;;;6.56;99.26;95886.59;4965692;28;20459;-74
2023/11/02 05:07:46;;;;;;;4.10;3.47;;;7.60;92.00;;;6.63;98.98;95886.44;4963051;28;20938;-78
2023/11/02 05:10:13;;;;;;;3.60;3.27;;;7.70;91.80;;;6.69;98.50;95882.00;4968885;28;20458;-81
2023/11/02 05:12:42;;;;;;;3.60;3.30;;;7.70;91.70;;;6.70;98.33;95871.00;4968713;28;20529;-78
2023/11/02 05:15:11;;;;;;;5.00;3.07;;;7.70;91.50;;;6.72;97.77;95887.66;4976904;28;20465;-78
2023/11/02 05:17:39;;;;;;;3.87;3.47;;;7.80;91.40;;;6.70;98.26;95879.03;4970019;28;20531;-75
2023/11/02 05:20:08;;;;;;;3.80;3.30;;;7.80;91.30;;;6.75;97.46;95873.78;4976464;28;20517;-79
2023/11/02 05:22:36;;;;;;;3.70;3.40;;;7.80;91.40;;;6.36;97.01;95811.94;4974343;28;20538;-78
2023/11/02 05:25:07;;;;;;;4.57;3.07;;;7.90;91.10;;;6.82;96.91;95896.94;4958617;28;20540;-80
2023/11/02 05:27:34;;;;;;;3.30;3.00;;;7.90;90.90;;;6.88;96.47;95888.75;4966987;28;20999;-80
2023/11/02 05:30:03;;;;;;;3.67;3.37;;;7.90;90.90;;;6.90;96.55;95880.41;4976623;28;20469;-80
2023/11/02 05:32:31;;;;;;;6.60;3.90;;;8.00;90.80;;;6.92;96.37;95872.97;4982602;28;20473;-82
2023/11/02 05:34:58;;;;;;;3.80;3.47;;;8.00;90.70;;;6.88;96.85;95869.13;4968124;28;21078;-78
2023/11/02 05:37:26;;;;;;;3.73;2.80;;;8.00;90.80;;;6.97;96.07;95867.66;4980709;28;21004;-77
2023/11/02 05:39:54;;;;;;;4.43;3.50;;;8.00;90.80;;;6.96;96.28;95868.72;4964968;28;20451;-79
2023/11/02 05:42:23;;;;;;;5.03;4.00;;;8.00;90.80;;;7.04;95.80;95865.59;4967274;28;20464;-76
2023/11/02 05:44:50;;;;;;;3.57;3.23;;;8.00;90.80;;;7.03;95.97;95855.94;4951745;28;20941;-81
2023/11/02 05:47:19;;;;;;;7.50;3.47;;;8.00;90.70;;;7.14;95.35;95856.09;4968324;28;20940;-80
2023/11/02 05:49:46;;;;;;;3.40;3.10;;;8.10;90.60;;;7.11;95.52;95843.16;4967246;28;20466;-78
2023/11/02 05:52:13;;;;;;;3.93;3.30;;;8.10;90.60;;;7.11;95.36;95843.16;4957770;28;21277;-79
2023/11/02 05:54:41;;;;;;;3.77;3.47;;;8.10;90.50;;;7.19;95.48;95831.97;4968580;28;20568;-81
2023/11/02 05:57:08;;;;;;;4.63;3.70;;;8.20;90.60;;;7.22;95.05;95835.00;4971603;28;21258;-78
2023/11/02 05:59:35;;;;;;;4.90;3.20;;;8.20;90.50;;;7.17;95.15;95816.13;4969351;28;20532;-80
2023/11/02 06:02:04;;;;;;;4.23;3.83;;;8.20;90.40;;;7.34;94.44;95816.06;4980230;28;21485;-81
2023/11/02 06:04:32;;;;;;;3.93;3.60;;;8.30;90.30;;;7.25;94.33;95828.31;4972824;28;20549;-76
2023/11/02 06:06:59;;;;;;;6.40;3.93;;;8.30;90.10;;;7.38;93.86;95821.78;4965670;28;20469;-73
2023/11/02 06:09:27;;;;;;;4.70;3.37;;;8.30;90.20;;;7.39;93.95;95827.97;4945559;28;20453;-81
2023/11/02 06:11:54;;;;;;;4.53;4.00;;;8.30;90.10;;;7.38;93.67;95813.72;4967231;28;20551;-81
2023/11/02 06:14:23;;;;;;;5.63;4.40;;;8.40;90.30;;;7.45;93.12;95822.41;4972311;28;20692;-83
2023/11/02 06:16:50;;;;;;;4.90;4.00;;;8.40;90.10;;;7.41;93.18;95807.84;4967881;28;20476;-81
2023/11/02 06:19:18;;;;;;;5.90;4.93;;;8.40;89.80;;;7.03;93.37;95721.69;4957232;28;20450;-74
2023/11/02 06:21:48;;;;;;;5.97;4.90;;;8.40;89.90;;;7.46;93.96;95780.22;4964807;28;20462;-77
2023/11/02 06:24:15;;;;;;;4.07;3.47;;;8.50;89.90;;;7.46;93.45;95767.63;4972083;28;20548;-77
2023/11/02 06:26:43;;;;;;;6.07;4.20;;;8.50;89.70;;;7.27;94.61;95734.03;4964805;28;21113;-77
2023/11/02 06:29:11;;;;;;;4.57;4.00;;;8.40;89.90;;;7.30;93.98;95720.16;4962424;28;21018;-83
2023/11/02 06:31:39;;;;;;;5.23;3.90;;;8.40;90.00;;;7.34;93.94;95711.31;4976451;28;20454;-81
2023/11/02 06:34:06;;;;;;;4.10;3.70;;;8.40;89.80;;;7.50;93.62;95728.44;4966883;28;20548;-77
2023/11/02 06:36:33;;;;;;;4.47;4.07;;;8.50;89.80;;;7.97;93.76;95706.59;4963720;28;20466;-77
2023/11/02 06:39:03;;;;;;;5.13;4.33;;;8.70;90.80;;;7.73;90.93;95705.00;4964521;28;20465;-75
2023/11/02 06:41:30;;;;;;;4.90;3.97;;;8.70;88.80;;;7.91;91.47;95706.50;4963921;28;20462;-78
2023/11/02 06:43:57;;;;;;;5.87;3.97;;;8.80;89.30;;;8.04;91.92;95715.22;4956357;28;20473;-79
2023/11/02 06:46:25;;;;;;;7.07;4.87;;;8.90;89.20;;;8.07;89.26;95720.09;4971090;28;20455;-79
2023/11/02 06:48:52;;;;;;;9.30;4.17;;;8.90;88.30;;;8.13;89.42;95726.34;4966184;28;20449;-71
2023/11/02 06:51:21;;;;;;;6.47;5.20;;;9.00;88.40;;;8.17;88.88;95724.75;4965649;28;20766;-77
2023/11/02 06:53:48;;;;;;;4.50;4.10;;;9.10;88.40;;;8.18;88.75;95718.28;4966770;28;21308;-77
2023/11/02 06:56:17;;;;;;;12.77;5.63;;;9.10;87.80;;;8.13;89.97;95716.41;4966184;28;20799;-75
2023/11/02 06:58:45;;;;;;;7.57;4.90;;;9.00;87.80;;;8.05;89.91;95706.91;4951564;28;20457;-79
2023/11/02 07:01:12;;;;;;;9.93;5.10;;;9.00;87.80;;;8.13;90.21;95702.94;4952023;28;20580;-76
2023/11/02 07:03:40;;;;;;;4.83;4.23;;;9.00;88.00;;;8.25;89.20;95704.63;4966815;28;20461;-73
2023/11/02 07:06:08;;;;;;;6.70;5.30;;;9.20;87.80;;;8.50;87.38;95718.31;4966262;28;20526;-72
2023/11/02 07:08:36;;;;;;;10.00;5.10;;;9.20;87.30;;;8.41;87.17;95719.81;4956920;28;20464;-71
2023/11/02 07:11:03;;;;;;;6.10;5.50;;;9.30;87.00;;;8.44;86.90;95708.56;4965475;28;20477;-72
2023/11/02 07:13:33;;;;;;;7.53;4.93;;;9.30;86.90;;;8.47;86.67;95686.50;4961984;28;21235;-73
2023/11/02 07:16:00;;;;;;;5.63;5.00;;;9.40;86.70;;;8.61;86.76;95697.66;4964269;28;20951;-71
2023/11/02 07:18:29;;;;;;;6.27;5.40;;;9.50;86.70;;;8.53;86.82;95697.34;4968820;28;20547;-73
2023/11/02 07:20:56;;;;;;;5.63;5.13;;;9.40;86.40;;;8.41;87.08;95689.44;4950414;28;20464;-71
2023/11/02 07:23:23;;;;;;;8.23;5.20;;;9.40;85.90;;;8.36;86.96;95688.34;4952106;28;20504;-74
2023/11/02 07:25:52;;;;;;;6.37;5.77;;;9.40;86.00;;;8.58;87.44;95706.25;4969419;28;20462;-74
2023/11/02 07:28:19;;;;;;;6.57;5.93;;;9.40;86.70;;;8.84;85.22;95716.38;4966670;28;20993;-73
2023/11/02 07:30:47;;;;;;;6.33;5.73;;;9.50;86.40;;;8.77;85.68;95727.38;4957396;28;20457;-73
2023/11/02 07:33:15;;;;;;;6.40;5.80;;;9.60;86.10;;;8.90;86.02;95718.81;4968436;28;20463;-72
2023/11/02 07:35:45;;;;;;;6.33;5.70;;;9.60;86.10;;;8.72;86.11;95722.78;4964568;28;20488;-73
2023/11/02 07:38:13;;;;;;;7.03;6.33;;;9.60;85.90;;;8.75;86.63;95730.34;4961928;28;20458;-72
2023/11/02 07:40:40;;;;;;;6.33;5.23;;;9.70;86.10;;;8.93;85.97;95721.00;4965904;28;20535;-76
2023/11/02 07:43:08;;;;;;;6.73;4.70;;;9.70;86.50;;;8.84;87.02;95702.91;4965435;28;20470;-73
2023/11/02 07:45:35;;;;;;;6.10;5.23;;;9.80;86.40;;;8.83;85.59;95696.72;4965899;28;20572;-72
2023/11/02 07:48:05;;;;;;;7.13;5.50;;;9.80;85.60;;;8.76;85.93;95696.94;4965377;28;20454;-75
2023/11/02 07:50:32;;;;;;;7.73;5.70;;;9.70;85.90;;;8.98;86.73;95716.72;4962897;28;20955;-73
2023/11/02 07:53:00;;;;;;;6.90;5.80;;;9.80;86.50;;;8.90;86.98;95694.59;4964987;28;20538;-74
2023/11/02 07:55:28;;;;;;;6.90;5.77;;;9.80;86.30;;;8.83;85.28;95660.91;4969003;28;21108;-75
2023/11/02 07:57:56;;;;;;;7.63;4.20;;;9.80;85.40;;;8.87;85.52;95676.28;4967639;28;20478;-68
2023/11/02 08:00:24;;;;;;;7.80;4.20;;;9.80;85.40;;;9.16;84.06;95729.75;4960360;28;20512;-72
2023/11/02 08:02:51;;;;;;;5.10;3.60;;;10.00;84.30;;;9.25;83.33;95738.13;4948854;28;20451;-71
2023/11/02 08:05:21;;;;;;;3.73;3.30;;;10.10;84.00;;;9.42;83.14;95747.91;4956072;28;20487;-72
2023/11/02 08:07:48;;;;;;;5.57;3.10;;;10.20;83.70;;;9.45;83.18;95729.31;4955791;28;21110;-69
2023/11/02 08:10:16;;;;;;;6.10;3.83;;;10.30;83.80;;;9.55;82.08;95708.84;4966747;28;20484;-70
2023/11/02 08:12:43;;;;;;;7.23;3.33;;;10.40;83.30;;;9.64;81.46;95708.09;4948932;28;20862;-71
2023/11/02 08:15:10;;;;;;;4.10;3.13;;;10.60;82.90;;;9.58;80.86;95676.78;4967204;28;20476;-73
2023/11/02 08:17:40;;;;;;;4.93;3.37;;;10.60;82.50;;;9.72;81.03;95692.44;4968026;28;20550;-70
2023/11/02 08:20:10;;;;;;;4.00;3.27;;;10.60;82.70;;;9.75;79.78;95675.72;4953071;28;21031;-71
2023/11/02 08:22:40;;;;;;;4.03;3.40;;;10.60;82.00;;;10.06;78.70;95719.75;4966627;28;20961;-70
2023/11/02 08:25:09;;;;;;;4.30;3.10;;;10.80;82.00;;;9.77;77.50;95670.88;4968368;28;20457;-70
2023/11/02 08:27:36;;;;;;;4.77;3.30;;;10.90;81.30;;;10.10;78.48;95711.94;4942968;28;20454;-69
2023/11/02 08:30:07;;;;;;;3.77;3.47;;;11.00;81.70;;;10.33;78.14;95723.25;4962168;28;20446;-70
2023/11/02 08:32:34;;;;;;;5.00;3.10;;;11.10;81.70;;;10.42;75.92;95727.06;4947603;28;20473;-69
2023/11/02 08:35:02;;;;;;;4.60;2.77;;;11.20;80.80;;;10.34;75.45;95741.06;4953051;28;20479;-69
2023/11/02 08:37:30;;;;;;;4.53;3.53;;;11.20;80.20;;;10.21;76.59;95780.19;4964920;28;20486;-70
2023/11/02 08:39:59;;;;;;;9.00;3.57;;;11.10;80.30;;;10.13;76.68;95789.63;4971491;28;21227;-69
2023/11/02 08:42:28;;;;;;;3.03;2.77;;;11.10;80.40;;;9.83;77.76;95768.78;4955485;28;20463;-69
2023/11/02 08:44:56;;;;;;;3.23;2.53;;;10.90;80.30;;;9.74;78.84;95758.53;4969121;28;20457;-69
2023/11/02 08:47:24;;;;;;;5.10;3.70;;;10.70;80.80;;;9.72;79.75;95752.59;4951916;28;20476;-68
2023/11/02 08:49:53;;;;;;;5.70;4.23;;;10.60;81.10;;;9.55;80.86;95736.63;4947095;28;20467;-70
2023/11/02 08:52:20;;;;;;;4.10;3.47;;;10.50;81.50;;;9.47;81.83;95724.47;4974000;28;20460;-72
2023/11/02 08:54:48;;;;;;;4.10;3.20;;;10.50;81.90;;;9.59;82.39;95729.63;4950840;28;20471;-69
2023/11/02 08:57:16;;;;;;;4.20;3.80;;;10.40;82.80;;;9.52;84.22;95723.69;4965440;28;20445;-71
2023/11/02 08:59:45;;;;;;;4.27;3.87;;;10.40;83.30;;;9.46;86.63;95716.63;4965689;28;20457;-71
2023/11/02 09:02:12;;;;;;;5.23;3.70;;;10.40;84.00;;;9.33;89.43;95718.78;4961837;28;20462;-71
2023/11/02 09:04:40;;;;;;;6.97;3.77;;;10.30;85.40;;;9.28;89.27;95726.03;4961429;28;20474;-72
2023/11/02 09:07:08;;;;;;;5.17;3.77;;;10.30;85.90;;;9.25;87.84;95718.44;4942863;28;20455;-70
2023/11/02 09:09:35;;;;;;;5.43;4.13;;;10.20;85.10;;;9.42;88.43;95691.28;4957805;28;20452;-73
2023/11/02 09:12:04;;;;;;;6.17;4.40;;;10.30;86.10;;;9.33;87.63;95699.91;4964474;28;20468;-72
2023/11/02 09:14:33;;;;;;;3.90;3.43;;;10.30;85.60;;;9.25;87.68;95708.50;4974883;28;20468;-71
2023/11/02 09:17:00;;;;;;;4.23;3.83;;;10.20;85.30;;;9.20;88.22;95709.28;4965171;28;20857;-70
2023/11/02 09:19:28;;;;;;;3.83;3.40;;;10.10;85.40;;;9.30;87.89;95708.50;4966335;28;20919;-69
2023/11/02 09:21:55;;;;;;;5.13;3.90;;;10.20;85.70;;;9.17;89.17;95706.28;4964995;28;20455;-71
2023/11/02 09:24:22;;;;;;;4.70;3.50;;;10.10;86.00;;;9.19;89.07;95694.19;4968036;28;20467;-69
2023/11/02 09:26:51;;;;;;;7.00;4.33;;;10.10;86.40;;;9.05;89.95;95690.34;4948610;28;20468;-70
2023/11/02 09:29:18;;;;;;;6.10;3.73;;;10.00;86.60;;;9.19;90.75;95674.53;4971045;28;20967;-70
2023/11/02 09:31:47;;;;;;;4.80;3.57;;;10.00;87.10;;;9.07;91.87;95672.88;4950923;28;20940;-69
2023/11/02 09:34:15;;;;;;;4.40;3.63;;;10.00;87.50;;;9.06;93.27;95670.41;4965548;28;20552;-71
2023/11/02 09:36:44;;;;;;;6.37;4.50;;;10.00;88.40;;;8.97;94.66;95664.72;4966118;28;20468;-72
2023/11/02 09:39:11;;;;;;;4.63;4.10;;;10.00;89.30;;;9.02;93.96;95661.25;4961289;28;20474;-70
2023/11/02 09:41:38;;;;;;;4.10;3.60;;;10.00;89.50;;;8.77;94.60;95614.28;4965120;28;20470;-69
2023/11/02 09:44:08;;;;;;;4.73;3.80;;;10.00;90.10;;;9.24;94.22;95677.22;4966948;28;20455;-72
2023/11/02 09:46:36;;;;;;;4.43;3.80;;;10.10;90.00;;;9.22;92.14;95668.59;4965945;28;20460;-68
2023/11/02 09:49:06;;;;;;;6.53;4.10;;;10.10;89.30;;;9.01;93.31;95662.31;4966279;28;20452;-71
2023/11/02 09:51:33;;;;;;;4.00;3.60;;;10.00;88.90;;;9.05;94.37;95653.47;4964791;28;20491;-71
2023/11/02 09:54:02;;;;;;;5.93;3.57;;;10.00;89.80;;;9.04;94.97;95638.38;4966334;28;20454;-71
2023/11/02 09:56:30;;;;;;;3.70;3.30;;;10.00;90.00;;;9.06;95.61;95640.78;4965884;28;20532;-70
2023/11/02 09:59:17;;;;;;;3.70;3.40;;;10.00;90.30;;;8.79;96.05;95583.34;4949828;28;20485;-72
2023/11/02 10:02:01;;;;;;;3.23;3.03;;;10.00;90.50;;;9.05;95.51;95618.44;4959550;28;20548;-71
2023/11/02 10:05:00;;;;;;;4.20;3.80;;;10.00;90.50;;;9.07;96.23;95596.63;4951632;28;20549;-72
2023/11/02 10:07:52;;;;;;;4.70;3.77;;;10.00;90.80;;;9.04;97.29;95583.69;4917277;28;20462;-69
2023/11/02 10:10:54;;;;;;;3.77;3.47;;;10.00;90.90;;;9.16;96.66;95586.97;4960000;28;20526;-69
2023/11/02 10:17:02;;;;;;;4.70;3.30;;;10.10;90.80;;;9.26;96.88;95571.91;5250963;23;20572;-69
2023/11/02 10:19:30;;;;;;;3.93;3.00;;;10.10;91.30;;;9.38;96.63;95558.16;4950818;28;20467;-69
2023/11/02 10:21:58;;;;;;;5.20;3.00;;;10.20;91.30;;;9.33;97.66;95545.50;4956362;28;20489;-70
2023/11/02 10:24:30;;;;;;;3.70;3.00;;;10.20;91.50;;;9.42;96.19;95543.06;4944561;28;20986;-72
2023/11/02 10:26:58;;;;;;;2.97;2.70;;;10.30;91.00;;;9.25;95.78;95527.16;4946684;28;21113;-72
2023/11/02 10:29:26;;;;;;;5.80;3.63;;;10.30;90.50;;;9.38;95.88;95526.63;4965541;28;20464;-73
2023/11/02 10:31:54;;;;;;;3.53;3.20;;;10.30;90.80;;;9.40;97.04;95518.28;4967403;28;20462;-70
2023/11/02 10:34:21;;;;;;;6.60;3.93;;;10.30;91.00;;;9.42;96.25;95516.13;4962691;28;20464;-70
2023/11/02 10:36:50;;;;;;;5.70;3.00;;;10.30;91.00;;;9.45;95.79;95504.78;4963604;28;20491;-70
2023/11/02 10:39:21;;;;;;;5.43;4.27;;;10.30;90.80;;;9.24;96.51;95498.59;4967349;28;20483;-70
2023/11/02 10:41:58;;;;;;;7.23;4.10;;;10.30;90.50;;;8.95;98.69;95454.13;4973894;28;21034;-71
2023/11/02 10:44:29;;;;;;;7.90;3.80;;;10.30;91.40;;;9.36;98.07;95493.75;4963492;28;20559;-69
2023/11/02 10:47:01;;;;;;;4.50;3.90;;;10.30;91.60;;;8.97;96.14;95416.16;4963073;28;20474;-71
2023/11/02 10:49:31;;;;;;;6.38;4.50;;;10.40;90.70;;;9.67;96.44;95480.25;4959114;28;20456;-70
2023/11/02 10:51:58;;;;;;;4.90;4.33;;;10.50;91.40;;;9.77;96.35;95490.22;4965093;28;20209;-71